sensor_id;sensor_type;location;lat;lon;timestamp;pressure;altitude;pressure_sealevel;temperature;humidity
47883;BME280;37739;50.350;7.578;2022-12-29T00:01:35;98878.19;;;10.79;79.44
47883;BME280;37739;50.350;7.578;2022-12-29T00:04:01;98884.16;;;10.78;79.72
47883;BME280;37739;50.350;7.578;2022-12-29T00:06:27;98866.25;;;10.80;79.65
47883;BME280;37739;50.350;7.578;2022-12-29T00:08:52;98875.59;;;10.79;79.75
47883;BME280;37739;50.350;7.578;2022-12-29T00:11:25;98874.81;;;10.82;79.60
47883;BME280;37739;50.350;7.578;2022-12-29T00:13:51;98866.28;;;10.83;79.73
47883;BME280;37739;50.350;7.578;2022-12-29T00:16:36;98860.25;;;10.81;80.21
47883;BME280;37739;50.350;7.578;2022-12-29T00:19:05;98873.03;;;10.79;80.56
47883;BME280;37739;50.350;7.578;2022-12-29T00:21:33;98875.59;;;10.79;80.83
47883;BME280;37739;50.350;7.578;2022-12-29T00:24:22;98871.31;;;10.78;80.75
47883;BME280;37739;50.350;7.578;2022-12-29T00:26:58;98860.22;;;10.78;80.89
47883;BME280;37739;50.350;7.578;2022-12-29T00:29:43;98860.09;;;10.73;82.07
47883;BME280;37739;50.350;7.578;2022-12-29T00:32:27;98868.69;;;10.75;82.19
47883;BME280;37739;50.350;7.578;2022-12-29T00:35:15;98849.78;;;10.70;82.34
47883;BME280;37739;50.350;7.578;2022-12-29T00:37:45;98852.19;;;10.64;83.26
47883;BME280;37739;50.350;7.578;2022-12-29T00:40:29;98847.91;;;10.63;83.27
47883;BME280;37739;50.350;7.578;2022-12-29T00:43:15;98841.94;;;10.64;83.63
47883;BME280;37739;50.350;7.578;2022-12-29T00:46:04;98833.34;;;10.60;84.37
47883;BME280;37739;50.350;7.578;2022-12-29T00:48:34;98826.34;;;10.53;85.01
47883;BME280;37739;50.350;7.578;2022-12-29T00:51:18;98829.72;;;10.51;85.18
47883;BME280;37739;50.350;7.578;2022-12-29T00:53:46;98811.69;;;10.48;86.83
47883;BME280;37739;50.350;7.578;2022-12-29T00:56:14;98817.72;;;10.50;85.68
47883;BME280;37739;50.350;7.578;2022-12-29T00:58:39;98829.75;;;10.54;85.47
47883;BME280;37739;50.350;7.578;2022-12-29T01:01:08;98816.13;;;10.55;85.50
47883;BME280;37739;50.350;7.578;2022-12-29T01:03:37;98816.97;;;10.55;85.70
47883;BME280;37739;50.350;7.578;2022-12-29T01:06:04;98811.00;;;10.55;85.60
47883;BME280;37739;50.350;7.578;2022-12-29T01:08:30;98822.97;;;10.56;85.51
47883;BME280;37739;50.350;7.578;2022-12-29T01:11:00;98814.44;;;10.57;85.60
47883;BME280;37739;50.350;7.578;2022-12-29T01:13:26;98807.69;;;10.62;84.91
47883;BME280;37739;50.350;7.578;2022-12-29T01:15:54;98808.53;;;10.61;84.97
47883;BME280;37739;50.350;7.578;2022-12-29T01:18:20;98802.56;;;10.62;85.29
47883;BME280;37739;50.350;7.578;2022-12-29T01:20:48;98796.66;;;10.65;85.06
47883;BME280;37739;50.350;7.578;2022-12-29T01:23:14;98813.72;;;10.63;85.36
47883;BME280;37739;50.350;7.578;2022-12-29T01:25:42;98805.22;;;10.65;85.03
47883;BME280;37739;50.350;7.578;2022-12-29T01:28:07;98818.00;;;10.64;85.36
47883;BME280;37739;50.350;7.578;2022-12-29T01:30:36;98822.31;;;10.65;85.08
47883;BME280;37739;50.350;7.578;2022-12-29T01:33:01;98819.69;;;10.63;85.06
47883;BME280;37739;50.350;7.578;2022-12-29T01:35:32;98835.13;;;10.65;84.84
47883;BME280;37739;50.350;7.578;2022-12-29T01:37:57;98814.63;;;10.66;84.54
47883;BME280;37739;50.350;7.578;2022-12-29T01:40:23;98809.53;;;10.68;84.35
47883;BME280;37739;50.350;7.578;2022-12-29T01:42:48;98804.44;;;10.69;84.38
47883;BME280;37739;50.350;7.578;2022-12-29T01:45:15;98801.88;;;10.69;83.83
47883;BME280;37739;50.350;7.578;2022-12-29T01:47:52;98792.53;;;10.73;83.72
47883;BME280;37739;50.350;7.578;2022-12-29T01:50:31;98790.00;;;10.74;83.38
47883;BME280;37739;50.350;7.578;2022-12-29T01:53:04;98785.72;;;10.75;82.91
47883;BME280;37739;50.350;7.578;2022-12-29T01:55:40;98789.19;;;10.77;82.43
47883;BME280;37739;50.350;7.578;2022-12-29T01:58:09;98792.66;;;10.79;82.49
47883;BME280;37739;50.350;7.578;2022-12-29T02:00:37;98789.28;;;10.80;82.46
47883;BME280;37739;50.350;7.578;2022-12-29T02:03:02;98777.25;;;10.79;82.39
47883;BME280;37739;50.350;7.578;2022-12-29T02:08:29;98767.06;;;10.82;81.96
47883;BME280;37739;50.350;7.578;2022-12-29T02:10:58;98773.91;;;10.83;81.85
47883;BME280;37739;50.350;7.578;2022-12-29T02:13:25;98773.13;;;10.86;81.81
47883;BME280;37739;50.350;7.578;2022-12-29T02:18:48;98768.00;;;10.86;81.93
47883;BME280;37739;50.350;7.578;2022-12-29T02:24:05;98755.19;;;10.87;81.87
47883;BME280;37739;50.350;7.578;2022-12-29T02:32:06;98759.41;;;10.85;82.46
47883;BME280;37739;50.350;7.578;2022-12-29T02:35:01;98747.47;;;10.86;82.36
47883;BME280;37739;50.350;7.578;2022-12-29T02:37:43;98739.78;;;10.87;81.93
47883;BME280;37739;50.350;7.578;2022-12-29T02:40:23;98758.63;;;10.89;82.06
47883;BME280;37739;50.350;7.578;2022-12-29T02:43:04;98749.28;;;10.93;81.70
47883;BME280;37739;50.350;7.578;2022-12-29T02:48:10;98741.59;;;10.91;81.99
47883;BME280;37739;50.350;7.578;2022-12-29T02:50:53;98739.91;;;10.95;81.94
47883;BME280;37739;50.350;7.578;2022-12-29T02:53:29;98738.16;;;10.92;82.24
47883;BME280;37739;50.350;7.578;2022-12-29T02:56:16;98730.44;;;10.91;82.41
47883;BME280;37739;50.350;7.578;2022-12-29T02:58:44;98727.06;;;10.92;82.39
47883;BME280;37739;50.350;7.578;2022-12-29T03:12:03;98713.13;;;10.79;84.87
47883;BME280;37739;50.350;7.578;2022-12-29T03:17:43;98707.91;;;10.74;86.17
47883;BME280;37739;50.350;7.578;2022-12-29T03:21:00;98721.53;;;10.72;86.19
47883;BME280;37739;50.350;7.578;2022-12-29T03:23:01;98709.59;;;10.72;86.00
47883;BME280;37739;50.350;7.578;2022-12-29T03:25:30;98712.16;;;10.72;85.15
47883;BME280;37739;50.350;7.578;2022-12-29T03:28:09;98695.94;;;10.75;85.02
47883;BME280;37739;50.350;7.578;2022-12-29T03:30:39;98701.91;;;10.74;84.96
47883;BME280;37739;50.350;7.578;2022-12-29T03:33:09;98702.78;;;10.74;84.75
47883;BME280;37739;50.350;7.578;2022-12-29T03:35:41;98689.94;;;10.73;84.48
47883;BME280;37739;50.350;7.578;2022-12-29T03:38:19;98694.19;;;10.74;84.11
47883;BME280;37739;50.350;7.578;2022-12-29T03:40:56;98697.66;;;10.74;84.08
47883;BME280;37739;50.350;7.578;2022-12-29T03:43:26;98679.72;;;10.76;83.53
47883;BME280;37739;50.350;7.578;2022-12-29T03:45:52;98677.16;;;10.77;83.13
47883;BME280;37739;50.350;7.578;2022-12-29T03:48:20;98688.31;;;10.79;82.45
47883;BME280;37739;50.350;7.578;2022-12-29T03:50:48;98679.84;;;10.82;82.09
47883;BME280;37739;50.350;7.578;2022-12-29T03:53:15;98684.97;;;10.82;81.46
47883;BME280;37739;50.350;7.578;2022-12-29T03:55:46;98684.25;;;10.91;81.09
47883;BME280;37739;50.350;7.578;2022-12-29T03:58:11;98684.25;;;10.91;80.64
47883;BME280;37739;50.350;7.578;2022-12-29T04:00:36;98678.34;;;10.93;80.58
47883;BME280;37739;50.350;7.578;2022-12-29T04:03:02;98674.91;;;10.94;80.42
47883;BME280;37739;50.350;7.578;2022-12-29T04:05:29;98674.06;;;10.94;80.49
47883;BME280;37739;50.350;7.578;2022-12-29T04:07:58;98675.78;;;10.95;80.32
47883;BME280;37739;50.350;7.578;2022-12-29T04:10:26;98678.34;;;10.95;80.18
47883;BME280;37739;50.350;7.578;2022-12-29T04:12:58;98679.22;;;10.95;80.22
47883;BME280;37739;50.350;7.578;2022-12-29T04:15:23;98674.06;;;10.94;80.25
47883;BME280;37739;50.350;7.578;2022-12-29T04:17:51;98681.78;;;10.97;80.35
47883;BME280;37739;50.350;7.578;2022-12-29T04:20:19;98678.41;;;10.98;80.17
47883;BME280;37739;50.350;7.578;2022-12-29T04:23:04;98680.13;;;10.97;80.66
47883;BME280;37739;50.350;7.578;2022-12-29T04:25:31;98679.16;;;10.92;81.20
47883;BME280;37739;50.350;7.578;2022-12-29T04:27:59;98685.09;;;10.90;82.09
47883;BME280;37739;50.350;7.578;2022-12-29T04:30:25;98679.97;;;10.90;82.06
47883;BME280;37739;50.350;7.578;2022-12-29T04:32:53;98679.91;;;10.87;81.86
47883;BME280;37739;50.350;7.578;2022-12-29T04:35:21;98673.97;;;10.89;81.82
47883;BME280;37739;50.350;7.578;2022-12-29T04:37:47;98667.97;;;10.89;82.07
47883;BME280;37739;50.350;7.578;2022-12-29T04:40:12;98663.78;;;10.94;81.40
47883;BME280;37739;50.350;7.578;2022-12-29T04:42:37;98656.94;;;10.94;80.60
47883;BME280;37739;50.350;7.578;2022-12-29T04:45:06;98661.25;;;10.97;80.53
47883;BME280;37739;50.350;7.578;2022-12-29T04:47:31;98664.72;;;10.97;80.36
47883;BME280;37739;50.350;7.578;2022-12-29T04:49:56;98657.91;;;10.99;79.70
47883;BME280;37739;50.350;7.578;2022-12-29T04:52:22;98667.34;;;11.02;79.70
47883;BME280;37739;50.350;7.578;2022-12-29T04:54:47;98681.06;;;11.04;79.58
47883;BME280;37739;50.350;7.578;2022-12-29T04:57:12;98681.91;;;11.03;79.52
47883;BME280;37739;50.350;7.578;2022-12-29T04:59:38;98682.75;;;11.02;79.56
47883;BME280;37739;50.350;7.578;2022-12-29T05:02:03;98665.69;;;11.06;79.46
47883;BME280;37739;50.350;7.578;2022-12-29T05:04:31;98663.97;;;11.05;79.01
47883;BME280;37739;50.350;7.578;2022-12-29T05:06:56;98672.56;;;11.08;79.22
47883;BME280;37739;50.350;7.578;2022-12-29T05:09:21;98674.25;;;11.06;79.00
47883;BME280;37739;50.350;7.578;2022-12-29T05:11:47;98668.25;;;11.06;78.68
47883;BME280;37739;50.350;7.578;2022-12-29T05:14:12;98676.03;;;11.09;79.03
47883;BME280;37739;50.350;7.578;2022-12-29T05:16:37;98669.16;;;11.08;78.42
47883;BME280;37739;50.350;7.578;2022-12-29T05:19:03;98675.19;;;11.10;78.82
47883;BME280;37739;50.350;7.578;2022-12-29T05:21:28;98669.19;;;11.09;79.09
47883;BME280;37739;50.350;7.578;2022-12-29T05:23:55;98664.94;;;11.11;79.04
47883;BME280;37739;50.350;7.578;2022-12-29T05:26:24;98664.91;;;11.10;78.96
47883;BME280;37739;50.350;7.578;2022-12-29T05:28:49;98668.28;;;11.07;78.85
47883;BME280;37739;50.350;7.578;2022-12-29T05:31:14;98664.91;;;11.10;78.89
47883;BME280;37739;50.350;7.578;2022-12-29T05:33:39;98664.09;;;11.11;78.84
47883;BME280;37739;50.350;7.578;2022-12-29T05:36:06;98660.66;;;11.12;78.82
47883;BME280;37739;50.350;7.578;2022-12-29T05:38:32;98670.06;;;11.11;78.67
47883;BME280;37739;50.350;7.578;2022-12-29T05:41:00;98670.03;;;11.10;78.85
47883;BME280;37739;50.350;7.578;2022-12-29T05:43:27;98664.09;;;11.11;78.74
47883;BME280;37739;50.350;7.578;2022-12-29T05:45:56;98666.66;;;11.12;78.90
47883;BME280;37739;50.350;7.578;2022-12-29T05:48:24;98677.81;;;11.13;78.92
47883;BME280;37739;50.350;7.578;2022-12-29T05:50:51;98666.66;;;11.11;79.02
47883;BME280;37739;50.350;7.578;2022-12-29T05:53:17;98669.22;;;11.12;79.09
47883;BME280;37739;50.350;7.578;2022-12-29T05:55:46;98665.75;;;11.10;79.18
47883;BME280;37739;50.350;7.578;2022-12-29T05:58:12;98664.13;;;11.14;79.91
47883;BME280;37739;50.350;7.578;2022-12-29T06:00:41;98667.53;;;11.13;79.25
47883;BME280;37739;50.350;7.578;2022-12-29T06:03:09;98659.81;;;11.11;79.34
47883;BME280;37739;50.350;7.578;2022-12-29T06:05:39;98655.50;;;11.10;79.59
47883;BME280;37739;50.350;7.578;2022-12-29T06:08:07;98661.53;;;11.11;79.17
47883;BME280;37739;50.350;7.578;2022-12-29T06:10:32;98657.22;;;11.10;79.02
47883;BME280;37739;50.350;7.578;2022-12-29T06:13:00;98659.78;;;11.10;79.29
47883;BME280;37739;50.350;7.578;2022-12-29T06:15:28;98656.38;;;11.11;79.50
47883;BME280;37739;50.350;7.578;2022-12-29T06:17:53;98648.66;;;11.09;79.49
47883;BME280;37739;50.350;7.578;2022-12-29T06:20:18;98649.47;;;11.08;79.69
47883;BME280;37739;50.350;7.578;2022-12-29T06:22:44;98650.34;;;11.07;79.81
47883;BME280;37739;50.350;7.578;2022-12-29T06:25:12;98650.41;;;11.12;79.61
47883;BME280;37739;50.350;7.578;2022-12-29T06:27:41;98652.94;;;11.10;79.60
47883;BME280;37739;50.350;7.578;2022-12-29T06:30:07;98657.28;;;11.13;79.63
47883;BME280;37739;50.350;7.578;2022-12-29T06:32:35;98660.72;;;11.15;79.55
47883;BME280;37739;50.350;7.578;2022-12-29T06:35:01;98657.31;;;11.14;79.62
47883;BME280;37739;50.350;7.578;2022-12-29T06:37:26;98652.13;;;11.13;79.73
47883;BME280;37739;50.350;7.578;2022-12-29T06:39:54;98653.84;;;11.14;79.84
47883;BME280;37739;50.350;7.578;2022-12-29T06:42:19;98659.81;;;11.11;80.04
47883;BME280;37739;50.350;7.578;2022-12-29T06:44:47;98646.97;;;11.11;80.70
47883;BME280;37739;50.350;7.578;2022-12-29T06:47:15;98650.41;;;11.12;80.74
47883;BME280;37739;50.350;7.578;2022-12-29T06:49:40;98663.22;;;11.12;80.65
47883;BME280;37739;50.350;7.578;2022-12-29T06:52:05;98659.81;;;11.11;80.86
47883;BME280;37739;50.350;7.578;2022-12-29T06:54:31;98659.81;;;11.11;80.81
47883;BME280;37739;50.350;7.578;2022-12-29T06:56:56;98659.81;;;11.11;81.02
47883;BME280;37739;50.350;7.578;2022-12-29T06:59:25;98662.34;;;11.10;81.29
47883;BME280;37739;50.350;7.578;2022-12-29T07:01:53;98660.59;;;11.07;81.27
47883;BME280;37739;50.350;7.578;2022-12-29T07:04:18;98655.50;;;11.10;81.05
47883;BME280;37739;50.350;7.578;2022-12-29T07:06:43;98658.94;;;11.11;80.23
47883;BME280;37739;50.350;7.578;2022-12-29T07:09:12;98660.63;;;11.10;80.32
47883;BME280;37739;50.350;7.578;2022-12-29T07:11:37;98662.34;;;11.10;80.60
47883;BME280;37739;50.350;7.578;2022-12-29T07:14:03;98678.56;;;11.07;80.74
47883;BME280;37739;50.350;7.578;2022-12-29T07:16:28;98685.38;;;11.05;82.24
47883;BME280;37739;50.350;7.578;2022-12-29T07:18:57;98682.81;;;11.05;82.38
47883;BME280;37739;50.350;7.578;2022-12-29T07:21:26;98703.19;;;10.96;83.66
47883;BME280;37739;50.350;7.578;2022-12-29T07:23:53;98713.38;;;10.91;85.17
47883;BME280;37739;50.350;7.578;2022-12-29T07:26:21;98720.13;;;10.88;85.56
47883;BME280;37739;50.350;7.578;2022-12-29T07:28:46;98725.91;;;10.77;88.21
47883;BME280;37739;50.350;7.578;2022-12-29T07:31:17;98737.84;;;10.75;88.48
47883;BME280;37739;50.350;7.578;2022-12-29T07:33:48;98734.09;;;10.58;91.01
47883;BME280;37739;50.350;7.578;2022-12-29T07:36:16;98733.16;;;10.53;91.05
47883;BME280;37739;50.350;7.578;2022-12-29T07:38:44;98742.38;;;10.45;92.58
47883;BME280;37739;50.350;7.578;2022-12-29T07:41:11;98752.59;;;10.41;92.20
47883;BME280;37739;50.350;7.578;2022-12-29T07:43:37;98772.97;;;10.35;93.59
47883;BME280;37739;50.350;7.578;2022-12-29T07:46:05;98766.13;;;10.36;93.41
47883;BME280;37739;50.350;7.578;2022-12-29T07:48:30;98765.28;;;10.35;93.45
47883;BME280;37739;50.350;7.578;2022-12-29T07:50:58;98771.22;;;10.34;93.37
47883;BME280;37739;50.350;7.578;2022-12-29T07:53:26;98770.38;;;10.34;93.73
47883;BME280;37739;50.350;7.578;2022-12-29T07:55:53;98773.81;;;10.36;92.66
47883;BME280;37739;50.350;7.578;2022-12-29T07:58:19;98760.97;;;10.34;92.72
47883;BME280;37739;50.350;7.578;2022-12-29T08:00:44;98763.56;;;10.36;92.69
47883;BME280;37739;50.350;7.578;2022-12-29T08:03:09;98762.59;;;10.31;92.25
47883;BME280;37739;50.350;7.578;2022-12-29T08:05:37;98763.38;;;10.28;92.20
47883;BME280;37739;50.350;7.578;2022-12-29T08:08:05;98759.81;;;10.21;92.23
47883;BME280;37739;50.350;7.578;2022-12-29T08:10:32;98760.66;;;10.20;91.34
47883;BME280;37739;50.350;7.578;2022-12-29T08:12:57;98768.34;;;10.20;91.11
47883;BME280;37739;50.350;7.578;2022-12-29T08:15:25;98766.56;;;10.18;90.49
47883;BME280;37739;50.350;7.578;2022-12-29T08:17:53;98784.50;;;10.18;89.37
47883;BME280;37739;50.350;7.578;2022-12-29T08:20:18;98791.28;;;10.16;89.02
47883;BME280;37739;50.350;7.578;2022-12-29T08:22:46;98805.00;;;10.16;88.66
47883;BME280;37739;50.350;7.578;2022-12-29T08:25:16;98804.09;;;10.16;88.20
47883;BME280;37739;50.350;7.578;2022-12-29T08:27:44;98811.78;;;10.16;87.59
47883;BME280;37739;50.350;7.578;2022-12-29T08:30:12;98811.78;;;10.14;87.52
47883;BME280;37739;50.350;7.578;2022-12-29T08:32:43;98825.44;;;10.15;87.57
47883;BME280;37739;50.350;7.578;2022-12-29T08:35:09;98818.66;;;10.17;87.15
47883;BME280;37739;50.350;7.578;2022-12-29T08:37:34;98816.91;;;10.16;86.46
47883;BME280;37739;50.350;7.578;2022-12-29T08:40:00;98832.34;;;10.17;86.85
47883;BME280;37739;50.350;7.578;2022-12-29T08:42:33;98831.56;;;10.20;86.93
47883;BME280;37739;50.350;7.578;2022-12-29T08:45:01;98840.06;;;10.19;87.35
47883;BME280;37739;50.350;7.578;2022-12-29T08:47:26;98848.75;;;10.24;87.29
47883;BME280;37739;50.350;7.578;2022-12-29T08:49:57;98851.31;;;10.24;87.17
47883;BME280;37739;50.350;7.578;2022-12-29T08:52:22;98850.44;;;10.25;87.41
47883;BME280;37739;50.350;7.578;2022-12-29T08:54:50;98853.09;;;10.28;87.18
47883;BME280;37739;50.350;7.578;2022-12-29T08:57:15;98853.19;;;10.31;87.04
47883;BME280;37739;50.350;7.578;2022-12-29T08:59:45;98859.19;;;10.32;87.28
47883;BME280;37739;50.350;7.578;2022-12-29T09:02:11;98860.88;;;10.31;87.28
47883;BME280;37739;50.350;7.578;2022-12-29T09:04:38;98867.78;;;10.34;87.00
47883;BME280;37739;50.350;7.578;2022-12-29T09:07:06;98858.34;;;10.33;86.98
47883;BME280;37739;50.350;7.578;2022-12-29T09:09:32;98849.88;;;10.35;86.85
47883;BME280;37739;50.350;7.578;2022-12-29T09:11:57;98861.84;;;10.36;86.88
47883;BME280;37739;50.350;7.578;2022-12-29T09:14:23;98847.38;;;10.38;86.66
47883;BME280;37739;50.350;7.578;2022-12-29T09:16:54;98861.03;;;10.37;86.94
47883;BME280;37739;50.350;7.578;2022-12-29T09:19:38;98862.72;;;10.35;86.64
47883;BME280;37739;50.350;7.578;2022-12-29T09:22:06;98861.84;;;10.36;86.56
47883;BME280;37739;50.350;7.578;2022-12-29T09:24:31;98876.44;;;10.37;86.29
47883;BME280;37739;50.350;7.578;2022-12-29T09:26:59;98869.53;;;10.36;86.14
47883;BME280;37739;50.350;7.578;2022-12-29T09:29:27;98867.88;;;10.38;86.65
47883;BME280;37739;50.350;7.578;2022-12-29T09:31:55;98885.09;;;10.44;86.16
47883;BME280;37739;50.350;7.578;2022-12-29T09:34:20;98879.16;;;10.45;85.84
47883;BME280;37739;50.350;7.578;2022-12-29T09:36:45;98883.47;;;10.48;85.85
47883;BME280;37739;50.350;7.578;2022-12-29T09:39:12;98876.59;;;10.45;85.47
47883;BME280;37739;50.350;7.578;2022-12-29T09:44:29;98877.38;;;10.43;85.07
47883;BME280;37739;50.350;7.578;2022-12-29T09:46:56;98878.25;;;10.43;85.09
47883;BME280;37739;50.350;7.578;2022-12-29T09:51:59;98877.44;;;10.46;85.07
47883;BME280;37739;50.350;7.578;2022-12-29T09:54:37;98871.47;;;10.47;84.67
47883;BME280;37739;50.350;7.578;2022-12-29T09:57:08;98881.72;;;10.47;84.92
47883;BME280;37739;50.350;7.578;2022-12-29T09:59:46;98890.22;;;10.44;84.80
47883;BME280;37739;50.350;7.578;2022-12-29T10:02:23;98897.03;;;10.42;84.61
47883;BME280;37739;50.350;7.578;2022-12-29T10:04:54;98903.84;;;10.41;85.58
47883;BME280;37739;50.350;7.578;2022-12-29T10:08:00;98896.97;;;10.40;85.84
47883;BME280;37739;50.350;7.578;2022-12-29T10:10:37;98893.59;;;10.41;86.36
47883;BME280;37739;50.350;7.578;2022-12-29T10:13:13;98901.34;;;10.45;86.02
47883;BME280;37739;50.350;7.578;2022-12-29T10:18:50;98901.34;;;10.43;86.55
47883;BME280;37739;50.350;7.578;2022-12-29T10:21:59;98883.53;;;10.49;87.74
47883;BME280;37739;50.350;7.578;2022-12-29T10:24:30;98889.69;;;10.57;87.18
47883;BME280;37739;50.350;7.578;2022-12-29T10:27:01;98893.97;;;10.58;86.85
47883;BME280;37739;50.350;7.578;2022-12-29T10:29:35;98883.69;;;10.58;87.32
47883;BME280;37739;50.350;7.578;2022-12-29T10:32:06;98887.13;;;10.57;88.19
47883;BME280;37739;50.350;7.578;2022-12-29T10:34:43;98886.19;;;10.54;88.48
47883;BME280;37739;50.350;7.578;2022-12-29T10:39:50;98888.66;;;10.49;89.29
47883;BME280;37739;50.350;7.578;2022-12-29T10:42:27;98888.63;;;10.48;89.51
47883;BME280;37739;50.350;7.578;2022-12-29T10:44:54;98896.31;;;10.48;88.81
47883;BME280;37739;50.350;7.578;2022-12-29T10:47:25;98900.59;;;10.49;88.82
47883;BME280;37739;50.350;7.578;2022-12-29T10:49:54;98902.25;;;10.47;89.13
47883;BME280;37739;50.350;7.578;2022-12-29T10:52:21;98913.34;;;10.46;88.90
47883;BME280;37739;50.350;7.578;2022-12-29T10:54:53;98908.91;;;10.38;89.70
47883;BME280;37739;50.350;7.578;2022-12-29T10:57:40;98901.22;;;10.38;90.23
47883;BME280;37739;50.350;7.578;2022-12-29T11:00:17;98908.09;;;10.39;90.50
47883;BME280;37739;50.350;7.578;2022-12-29T11:08:10;98918.75;;;10.58;89.69
47883;BME280;37739;50.350;7.578;2022-12-29T11:10:41;98912.72;;;10.56;89.46
47883;BME280;37739;50.350;7.578;2022-12-29T11:13:18;98924.75;;;10.58;89.74
47883;BME280;37739;50.350;7.578;2022-12-29T11:15:46;98923.03;;;10.57;89.14
47883;BME280;37739;50.350;7.578;2022-12-29T11:18:24;98917.84;;;10.56;88.56
47883;BME280;37739;50.350;7.578;2022-12-29T11:20:53;98933.31;;;10.59;88.36
47883;BME280;37739;50.350;7.578;2022-12-29T11:26:19;98932.47;;;10.60;86.04
47883;BME280;37739;50.350;7.578;2022-12-29T11:31:30;98930.81;;;10.60;85.01
47883;BME280;37739;50.350;7.578;2022-12-29T11:33:57;98935.00;;;10.57;84.20
47883;BME280;37739;50.350;7.578;2022-12-29T11:36:25;98937.59;;;10.60;83.98
47883;BME280;37739;50.350;7.578;2022-12-29T11:38:55;98931.56;;;10.58;83.32
47883;BME280;37739;50.350;7.578;2022-12-29T11:41:25;98940.25;;;10.63;83.06
47883;BME280;37739;50.350;7.578;2022-12-29T11:43:58;98937.78;;;10.68;82.51
47883;BME280;37739;50.350;7.578;2022-12-29T11:46:30;98939.78;;;10.81;81.65
47883;BME280;37739;50.350;7.578;2022-12-29T11:48:57;98941.75;;;10.93;81.62
47883;BME280;37739;50.350;7.578;2022-12-29T11:51:29;98937.22;;;10.81;78.69
47883;BME280;37739;50.350;7.578;2022-12-29T11:53:59;98938.03;;;10.78;79.49
47883;BME280;37739;50.350;7.578;2022-12-29T11:56:40;98943.13;;;10.77;78.73
47883;BME280;37739;50.350;7.578;2022-12-29T11:59:37;98945.59;;;10.72;78.16
47883;BME280;37739;50.350;7.578;2022-12-29T12:02:28;98948.88;;;10.67;77.76
47883;BME280;37739;50.350;7.578;2022-12-29T12:07:42;98942.06;;;10.67;77.83
47883;BME280;37739;50.350;7.578;2022-12-29T12:10:20;98947.13;;;10.66;76.99
47883;BME280;37739;50.350;7.578;2022-12-29T12:12:53;98945.69;;;10.77;76.45
47883;BME280;37739;50.350;7.578;2022-12-29T12:15:30;98949.44;;;10.91;76.02
47883;BME280;37739;50.350;7.578;2022-12-29T12:18:05;98951.13;;;10.91;75.93
47883;BME280;37739;50.350;7.578;2022-12-29T12:20:42;98947.72;;;10.92;75.31
47883;BME280;37739;50.350;7.578;2022-12-29T12:26:28;98947.88;;;10.98;74.18
47883;BME280;37739;50.350;7.578;2022-12-29T12:29:10;98945.47;;;11.06;74.70
47883;BME280;37739;50.350;7.578;2022-12-29T12:34:29;98939.50;;;11.08;74.15
47883;BME280;37739;50.350;7.578;2022-12-29T12:37:02;98952.34;;;11.07;74.23
47883;BME280;37739;50.350;7.578;2022-12-29T12:39:56;98951.38;;;11.02;73.67
47883;BME280;37739;50.350;7.578;2022-12-29T12:45:34;98947.78;;;10.95;74.06
47883;BME280;37739;50.350;7.578;2022-12-29T12:59:28;98942.47;;;10.86;73.10
47883;BME280;37739;50.350;7.578;2022-12-29T13:04:51;98949.44;;;10.91;73.05
47883;BME280;37739;50.350;7.578;2022-12-29T13:08:02;98957.22;;;10.96;73.35
47883;BME280;37739;50.350;7.578;2022-12-29T13:12:48;98956.25;;;10.91;73.11
47883;BME280;37739;50.350;7.578;2022-12-29T13:19:02;98958.81;;;10.91;71.61
47883;BME280;37739;50.350;7.578;2022-12-29T13:21:55;98956.22;;;10.88;71.23
47883;BME280;37739;50.350;7.578;2022-12-29T13:27:20;98959.53;;;10.84;70.78
47883;BME280;37739;50.350;7.578;2022-12-29T13:30:02;98974.09;;;10.85;70.91
47883;BME280;37739;50.350;7.578;2022-12-29T13:37:53;98980.53;;;11.05;71.12
47883;BME280;37739;50.350;7.578;2022-12-29T13:40:24;98966.19;;;11.15;70.76
47883;BME280;37739;50.350;7.578;2022-12-29T13:42:52;98968.19;;;11.28;70.63
47883;BME280;37739;50.350;7.578;2022-12-29T13:45:25;98966.41;;;11.24;69.31
47883;BME280;37739;50.350;7.578;2022-12-29T13:48:04;98969.69;;;11.18;69.86
47883;BME280;37739;50.350;7.578;2022-12-29T13:50:36;98966.94;;;11.09;69.56
47883;BME280;37739;50.350;7.578;2022-12-29T13:53:17;98972.72;;;11.00;70.19
47883;BME280;37739;50.350;7.578;2022-12-29T14:11:24;98984.47;;;10.91;71.20
47883;BME280;37739;50.350;7.578;2022-12-29T14:13:54;98977.66;;;10.91;70.88
47883;BME280;37739;50.350;7.578;2022-12-29T14:18:55;98980.06;;;10.84;70.64
47883;BME280;37739;50.350;7.578;2022-12-29T14:21:25;98985.13;;;10.80;70.49
47883;BME280;37739;50.350;7.578;2022-12-29T14:26:45;98987.63;;;10.79;71.00
47883;BME280;37739;50.350;7.578;2022-12-29T14:31:48;99006.47;;;10.79;70.72
47883;BME280;37739;50.350;7.578;2022-12-29T14:37:02;98997.75;;;10.73;68.72
47883;BME280;37739;50.350;7.578;2022-12-29T14:39:43;99003.72;;;10.72;69.84
47883;BME280;37739;50.350;7.578;2022-12-29T14:42:20;99000.09;;;10.64;69.22
47883;BME280;37739;50.350;7.578;2022-12-29T14:44:53;99006.03;;;10.61;69.92
47883;BME280;37739;50.350;7.578;2022-12-29T14:49:57;99004.03;;;10.49;69.39
47883;BME280;37739;50.350;7.578;2022-12-29T14:52:30;99006.47;;;10.45;68.93
47883;BME280;37739;50.350;7.578;2022-12-29T14:54:59;99015.03;;;10.44;68.71
47883;BME280;37739;50.350;7.578;2022-12-29T14:57:48;99017.41;;;10.36;67.62
47883;BME280;37739;50.350;7.578;2022-12-29T15:00:18;99026.78;;;10.35;67.72
47883;BME280;37739;50.350;7.578;2022-12-29T15:02:49;99022.38;;;10.31;66.76
47883;BME280;37739;50.350;7.578;2022-12-29T15:05:46;99017.97;;;10.27;66.50
47883;BME280;37739;50.350;7.578;2022-12-29T15:08:17;99015.34;;;10.24;66.84
47883;BME280;37739;50.350;7.578;2022-12-29T15:10:48;99013.53;;;10.20;66.84
47883;BME280;37739;50.350;7.578;2022-12-29T15:13:21;99016.03;;;10.17;65.86
47883;BME280;37739;50.350;7.578;2022-12-29T15:15:47;99011.66;;;10.13;66.44
47883;BME280;37739;50.350;7.578;2022-12-29T15:18:29;99007.28;;;10.10;66.60
47883;BME280;37739;50.350;7.578;2022-12-29T15:21:00;99006.38;;;10.08;66.26